Forside
METAR-TAF:

METAR-TAF

Lufthavne :

Taloyoak, Nunavut, Canada

Breddekreds: 69-33N, længdekreds: 093-35W, højde: 28 m

Aktuelle vejr

Denne rapport blev lavet for 23 minutter siden, kl. 07:00 UTC
Vind 11 kt fra nordøst
Temperatur -16°C
Fugtighed 84%
Tryk 1020 hPa
Sigt: 24.1 km
skyfri

METAR: CYYH 220700Z 05011KT 15SM SKC M16/M18 A3013 RMK SLP207

Tid: 01:23 (07:23 UTC)

Vejrudsigter

Denne rapport blev lavet for 1 time og 42 minutter siden, kl. 05:41 UTC
Foreløbig gælder fra 22 på 06 UTC til 22 på 18 UTC
Vind 8 kt fra nordøst
Sigt: 10 km
Spredte skyer i en højde af 2000 ft
Midlertidig
fra 22 på 06 UTC til 22 på 10 UTC
Sigt: 8.0 km
Brudte skyer i en højde af 2000 ft
let sne, dis
Fra 22 på 1000 UTC
Vind 5 kt fra nord
Sigt: 10 km
Nogle få skyer i en højde af 600 ft
Spredte skyer i en højde af 3000 ft
Midlertidig
fra 22 på 10 UTC til 22 på 16 UTC
Sigt: 6.4 km
iskrystaller

TAF: CYYH 220541Z 2206/2218 05008KT P6SM SCT020 TEMPO 2206/2210 5SM -SN BR BKN020 FM221000 35005KT P6SM FEW006 SCT030 TEMPO 2210/2216 4SM IC RMK NXT FCST BY 221200Z

Vejrobservationer og prognoser fra mere end 4000 lufthavne (METAR og TAF).

De gule og røde prikker repræsenterer de meteorologiske stationer.

Flyt musen over at se navnet på stationen.

Så klik over at se vejr observationer og prognoser.

At skifte det kort: Klik på de grønne knapper med et sort kors for at zoome ind; på den grønne knap med en bindestreg for at zoome ud; eller på de grønne pile for tilstødende kort.


METAR-TAF: